createdAt,value
2016-03-22T00:00:01.201Z,7.52
2016-03-22T00:01:01.189Z,7.58
2016-03-22T00:02:01.176Z,7.5
2016-03-22T00:03:01.178Z,7.55
2016-03-22T00:04:01.198Z,7.45
2016-03-22T00:05:01.153Z,7.4
2016-03-22T00:06:01.139Z,7.55
2016-03-22T00:07:01.159Z,7.57
2016-03-22T00:08:01.145Z,7.48
2016-03-22T00:09:01.132Z,7.5
2016-03-22T00:10:01.135Z,7.48
2016-03-22T00:11:01.106Z,7.43
2016-03-22T00:12:01.125Z,7.5
2016-03-22T00:13:01.112Z,7.48
2016-03-22T00:14:01.099Z,7.53
2016-03-22T00:15:01.085Z,7.52
2016-03-22T00:16:01.105Z,7.42
2016-03-22T00:17:01.076Z,7.49
2016-03-22T00:18:00.328Z,7.49
2016-03-22T00:19:01.082Z,7.57
2016-03-22T00:20:01.052Z,7.55
2016-03-22T00:21:01.040Z,7.57
2016-03-22T00:22:01.058Z,7.52
2016-03-22T00:23:01.045Z,7.52
2016-03-22T00:24:01.032Z,7.55
2016-03-22T00:25:01.035Z,7.63
2016-03-22T00:26:01.021Z,7.5
2016-03-22T00:27:01.024Z,7.49
2016-03-22T00:28:01.012Z,7.46
2016-03-22T00:29:01.014Z,7.48
2016-03-22T00:30:00.986Z,7.53
2016-03-22T00:31:01.003Z,7.48
2016-03-22T00:32:01.006Z,7.63
2016-03-22T00:33:01.649Z,7.6
2016-03-22T00:34:01.808Z,7.64
2016-03-22T00:35:00.842Z,7.6
2016-03-22T00:36:02.266Z,7.43
2016-03-22T00:37:00.925Z,7.48
2016-03-22T00:38:00.943Z,7.5
2016-03-22T00:39:00.822Z,7.5
2016-03-22T00:40:00.933Z,7.43
2016-03-22T00:41:01.093Z,7.58
2016-03-22T00:42:00.923Z,7.5
2016-03-22T00:43:01.707Z,7.46
2016-03-22T00:44:00.991Z,7.55
2016-03-22T00:45:01.056Z,7.48
2016-03-22T00:46:00.871Z,7.52
2016-03-22T00:47:01.734Z,7.45
2016-03-22T00:48:00.877Z,7.6
2016-03-22T00:49:00.879Z,7.55
2016-03-22T00:50:00.867Z,7.57
2016-03-22T00:51:00.854Z,7.53
2016-03-22T00:52:15.047Z,7.46
2016-03-22T00:54:02.220Z,7.52
2016-03-22T00:55:00.928Z,7.48
2016-03-22T00:56:01.883Z,7.53
2016-03-22T00:57:01.167Z,7.4
2016-03-22T00:58:00.888Z,7.42
2016-03-22T00:59:00.797Z,7.43
2016-03-22T01:00:00.783Z,7.43
2016-03-22T01:01:00.787Z,7.37
2016-03-22T01:02:15.010Z,7.46
2016-03-22T01:03:00.776Z,7.4
2016-03-22T01:04:01.217Z,7.52
2016-03-22T01:05:01.125Z,7.43
2016-03-22T01:06:00.753Z,7.37
2016-03-22T01:07:01.100Z,7.39
2016-03-22T01:08:00.743Z,7.39
2016-03-22T01:09:00.746Z,7.28
2016-03-22T01:10:00.561Z,7.4
2016-03-22T01:11:00.735Z,7.37
2016-03-22T01:12:00.707Z,7.4
2016-03-22T01:13:00.710Z,7.45
2016-03-22T01:14:00.696Z,7.4
2016-03-22T01:15:00.700Z,7.43
2016-03-22T01:16:00.671Z,7.42
2016-03-22T01:17:00.690Z,7.42
2016-03-22T01:18:00.660Z,7.4
2016-03-22T01:19:00.679Z,7.42
2016-03-22T01:20:00.681Z,7.43
2016-03-22T01:21:00.668Z,7.46
2016-03-22T01:22:00.640Z,7.43
2016-03-22T01:23:00.642Z,7.46
2016-03-22T01:24:00.631Z,7.4
2016-03-22T01:25:00.633Z,7.5
2016-03-22T01:26:00.635Z,7.46
2016-03-22T01:27:00.623Z,7.55
2016-03-22T01:28:00.609Z,7.42
2016-03-22T01:29:00.597Z,7.48
2016-03-22T01:30:00.599Z,7.48
2016-03-22T01:31:00.602Z,7.46
2016-03-22T01:32:00.589Z,7.42
2016-03-22T01:33:00.561Z,7.43
2016-03-22T01:34:00.578Z,7.5
2016-03-22T01:35:00.566Z,7.42
2016-03-22T01:36:00.553Z,7.45
2016-03-22T01:37:00.555Z,7.45
2016-03-22T01:38:00.543Z,7.42
2016-03-22T01:39:00.529Z,7.46
2016-03-22T01:40:00.517Z,7.39
2016-03-22T01:41:00.535Z,7.61
2016-03-22T01:42:00.522Z,7.61
2016-03-22T01:43:00.509Z,7.61
2016-03-22T01:44:00.512Z,7.53
2016-03-22T01:45:00.499Z,7.49
2016-03-22T01:46:00.485Z,7.45
2016-03-22T01:47:00.488Z,7.6
2016-03-22T01:48:00.475Z,7.53
2016-03-22T01:49:00.463Z,7.63
2016-03-22T01:50:00.481Z,7.49
2016-03-22T01:51:00.453Z,7.53
2016-03-22T01:52:01.846Z,7.48
2016-03-22T01:53:02.083Z,7.45
2016-03-22T01:54:01.023Z,7.55
2016-03-22T01:55:00.448Z,7.48
2016-03-22T01:56:00.434Z,7.6
2016-03-22T01:57:00.406Z,7.46
2016-03-22T01:58:00.858Z,7.52
2016-03-22T01:59:00.628Z,7.52
2016-03-22T02:00:00.353Z,7.52
2016-03-22T02:01:00.342Z,7.43
2016-03-22T02:02:00.331Z,7.57
2016-03-22T02:03:00.760Z,7.37
2016-03-22T02:04:00.835Z,7.57
2016-03-22T02:05:00.287Z,7.55
2016-03-22T02:06:00.285Z,7.55
2016-03-22T02:07:00.250Z,7.5
2016-03-22T02:08:00.281Z,7.49
2016-03-22T02:09:00.251Z,7.45
2016-03-22T02:10:00.251Z,7.55
2016-03-22T02:11:00.830Z,7.64
2016-03-22T02:12:01.082Z,7.48
2016-03-22T02:13:00.302Z,7.57
2016-03-22T02:14:01.006Z,7.48
2016-03-22T02:15:00.196Z,7.57
2016-03-22T02:16:00.199Z,7.52
2016-03-22T02:17:00.559Z,7.52
2016-03-22T02:18:00.422Z,7.48
2016-03-22T02:19:00.190Z,7.52
2016-03-22T02:20:00.161Z,7.53
2016-03-22T02:21:00.461Z,7.4
2016-03-22T02:22:01.511Z,7.46
2016-03-22T02:24:00.969Z,7.53
2016-03-22T02:25:00.222Z,7.5
2016-03-22T02:26:00.130Z,7.58
2016-03-22T02:27:00.133Z,7.52
2016-03-22T02:28:00.105Z,7.57
2016-03-22T02:29:00.107Z,7.55
2016-03-22T02:30:00.079Z,7.46
2016-03-22T02:31:00.086Z,7.43
2016-03-22T02:32:00.073Z,7.45
2016-03-22T02:33:00.076Z,7.4
2016-03-22T02:34:00.063Z,7.48
2016-03-22T02:35:00.081Z,7.45
2016-03-22T02:36:00.054Z,7.43
2016-03-22T02:37:00.040Z,7.57
2016-03-22T02:38:00.042Z,7.43
2016-03-22T02:39:00.045Z,7.42
2016-03-22T02:40:00.032Z,7.45
2016-03-22T02:41:00.019Z,7.5
2016-03-22T02:42:00.007Z,7.42
2016-03-22T02:42:59.993Z,7.42
2016-03-22T02:44:00.011Z,7.58
2016-03-22T02:44:59.999Z,7.45
2016-03-22T02:46:00.001Z,7.45
2016-03-22T02:46:59.972Z,7.48
2016-03-22T02:47:59.991Z,7.43
2016-03-22T02:48:59.963Z,7.5
2016-03-22T02:49:59.966Z,7.52
2016-03-22T02:50:59.953Z,7.43
2016-03-22T02:51:59.955Z,7.48
2016-03-22T02:52:59.942Z,7.48
2016-03-22T02:53:59.945Z,7.48
2016-03-22T02:54:59.932Z,7.49
2016-03-22T02:55:59.919Z,7.5
2016-03-22T02:56:59.906Z,7.48
2016-03-22T02:57:59.894Z,7.55
2016-03-22T02:58:59.896Z,7.64
2016-03-22T02:59:59.914Z,7.55
2016-03-22T03:00:59.870Z,7.46
2016-03-22T03:01:59.904Z,7.55
2016-03-22T03:02:59.876Z,7.6
2016-03-22T03:03:59.878Z,7.53
2016-03-22T03:04:59.865Z,7.46
2016-03-22T03:05:59.852Z,7.57
2016-03-22T03:06:59.840Z,7.61
2016-03-22T03:07:59.857Z,7.58
2016-03-22T03:08:59.829Z,7.45
2016-03-22T03:09:59.832Z,7.55
2016-03-22T03:11:00.615Z,7.49
2016-03-22T03:12:01.775Z,7.53
2016-03-22T03:13:00.621Z,7.45
2016-03-22T03:13:59.795Z,7.45
2016-03-22T03:14:59.892Z,7.48
2016-03-22T03:15:59.879Z,7.55
2016-03-22T03:17:00.381Z,7.43
2016-03-22T03:18:00.213Z,7.4
2016-03-22T03:18:59.762Z,7.39
2016-03-22T03:19:59.827Z,7.46
2016-03-22T03:20:59.768Z,7.4
2016-03-22T03:22:00.552Z,7.39
2016-03-22T03:23:00.569Z,7.39
2016-03-22T03:24:00.150Z,7.27
2016-03-22T03:24:59.731Z,7.3
2016-03-22T03:25:59.718Z,7.27
2016-03-22T03:26:59.737Z,7.34
2016-03-22T03:27:59.896Z,7.35
2016-03-22T03:28:59.726Z,7.28
2016-03-22T03:30:14.669Z,7.31
2016-03-22T03:30:59.701Z,7.32
2016-03-22T03:32:59.674Z,7.3
2016-03-22T03:34:00.037Z,7.37
2016-03-22T03:34:59.852Z,7.32
2016-03-22T03:35:59.668Z,7.31
2016-03-22T03:36:59.951Z,7.35
2016-03-22T03:37:59.657Z,7.32
2016-03-22T03:38:59.660Z,7.31
2016-03-22T03:40:00.679Z,7.31
2016-03-22T03:40:59.618Z,7.3
2016-03-22T03:41:59.620Z,7.32
2016-03-22T03:42:59.609Z,7.28
2016-03-22T03:44:00.486Z,7.25
2016-03-22T03:44:59.598Z,7.25
2016-03-22T03:45:59.600Z,7.24
2016-03-22T03:46:59.587Z,7.24
2016-03-22T03:47:59.575Z,7.32
2016-03-22T03:48:59.562Z,7.34
2016-03-22T03:49:59.564Z,7.31
2016-03-22T03:50:59.550Z,7.31
2016-03-22T03:51:59.554Z,7.27
2016-03-22T03:52:59.541Z,7.28
2016-03-22T03:53:59.544Z,7.25
2016-03-22T03:54:59.531Z,7.21
2016-03-22T03:55:59.533Z,7.25
2016-03-22T03:56:59.505Z,7.28
2016-03-22T03:57:59.524Z,7.24
2016-03-22T03:58:59.494Z,7.27
2016-03-22T03:59:59.482Z,7.31
2016-03-22T04:00:59.485Z,7.21
2016-03-22T04:01:59.487Z,7.15
2016-03-22T04:02:59.458Z,7.13
2016-03-22T04:03:59.493Z,7.1
2016-03-22T04:04:59.448Z,7.12
2016-03-22T04:05:59.466Z,7.13
2016-03-22T04:06:59.469Z,7.12
2016-03-22T04:07:59.441Z,7.06
2016-03-22T04:08:59.428Z,7.13
2016-03-22T04:09:59.431Z,7.13
2016-03-22T04:10:59.417Z,7.1
2016-03-22T04:11:59.420Z,7.13
2016-03-22T04:12:59.423Z,7.09
2016-03-22T04:13:59.410Z,7.13
2016-03-22T04:14:59.381Z,7.17
2016-03-22T04:15:59.400Z,7.16
2016-03-22T04:16:59.371Z,7.17
2016-03-22T04:17:59.389Z,7.16
2016-03-22T04:18:59.361Z,7.16
2016-03-22T04:19:59.364Z,7.15
2016-03-22T04:20:59.350Z,7.1
2016-03-22T04:21:59.370Z,7.07
2016-03-22T04:22:59.341Z,7.13
2016-03-22T04:23:59.327Z,7.07
2016-03-22T04:24:59.190Z,7.16
2016-03-22T04:25:59.317Z,7.09
2016-03-22T04:26:59.305Z,7.15
2016-03-22T04:27:59.307Z,7.16
2016-03-22T04:28:59.310Z,7.03
2016-03-22T04:30:00.094Z,7.02
2016-03-22T04:31:01.628Z,7.13
2016-03-22T04:32:00.505Z,7.1
2016-03-22T04:32:59.273Z,7.15
2016-03-22T04:33:59.839Z,7.09
2016-03-22T04:34:59.794Z,7.12
2016-03-22T04:35:59.266Z,6.97
2016-03-22T04:36:59.253Z,7.12
2016-03-22T04:37:59.240Z,7.09
2016-03-22T04:38:59.243Z,7.12
2016-03-22T04:39:59.418Z,7.07
2016-03-22T04:41:00.296Z,6.97
2016-03-22T04:42:00.329Z,6.94
2016-03-22T04:42:59.769Z,6.99
2016-03-22T04:43:59.179Z,6.98
2016-03-22T04:44:59.368Z,6.95
2016-03-22T04:45:59.433Z,6.95
2016-03-22T04:46:59.171Z,6.95
2016-03-22T04:47:59.173Z,6.94
2016-03-22T04:48:59.973Z,6.85
2016-03-22T04:49:59.367Z,6.94
2016-03-22T04:50:59.150Z,6.94
2016-03-22T04:51:59.528Z,6.94
2016-03-22T04:52:59.672Z,6.88
2016-03-22T04:53:59.611Z,6.87
2016-03-22T04:54:59.114Z,6.84
2016-03-22T04:55:59.319Z,6.87
2016-03-22T04:56:59.104Z,6.87
2016-03-22T04:57:59.091Z,6.81
2016-03-22T04:58:59.234Z,6.77
2016-03-22T05:00:00.158Z,6.79
2016-03-22T05:01:00.318Z,6.8
2016-03-22T05:01:59.774Z,6.8
2016-03-22T05:02:59.073Z,6.8
2016-03-22T05:03:59.747Z,6.77
2016-03-22T05:04:59.046Z,6.8
2016-03-22T05:05:58.910Z,6.77
2016-03-22T05:06:59.037Z,6.81
2016-03-22T05:07:59.024Z,6.77
2016-03-22T05:08:59.011Z,6.79
2016-03-22T05:09:59.029Z,6.84
2016-03-22T05:10:59.016Z,6.79
2016-03-22T05:11:59.004Z,6.79
2016-03-22T05:12:58.990Z,6.73
2016-03-22T05:13:58.993Z,6.77
2016-03-22T05:14:58.981Z,6.85
2016-03-22T05:15:58.983Z,6.81
2016-03-22T05:16:58.955Z,6.79
2016-03-22T05:17:58.957Z,6.81
2016-03-22T05:18:58.960Z,6.84
2016-03-22T05:19:58.947Z,6.87
2016-03-22T05:20:58.918Z,6.81
2016-03-22T05:21:58.921Z,6.88
2016-03-22T05:22:58.923Z,6.84
2016-03-22T05:23:58.958Z,6.84
2016-03-22T05:24:58.928Z,6.87
2016-03-22T05:25:58.885Z,6.95
2016-03-22T05:26:58.903Z,6.97
2016-03-22T05:27:58.891Z,6.94
2016-03-22T05:28:58.878Z,7.02
2016-03-22T05:29:58.911Z,6.98
2016-03-22T05:30:58.852Z,6.99
2016-03-22T05:31:58.854Z,6.95
2016-03-22T05:32:58.841Z,7.07
2016-03-22T05:33:58.844Z,7.1
2016-03-22T05:34:58.815Z,7.09
2016-03-22T05:35:58.834Z,7.07
2016-03-22T05:36:59.084Z,7.07
2016-03-22T05:37:58.786Z,7.16
2016-03-22T05:38:58.790Z,7.12
2016-03-22T05:40:01.264Z,7.24
2016-03-22T05:40:58.772Z,7.15
2016-03-22T05:41:58.760Z,7.21
2016-03-22T05:42:58.747Z,7.17
2016-03-22T05:43:58.766Z,7.24
2016-03-22T05:44:58.736Z,7.25
2016-03-22T05:45:58.739Z,7.31
2016-03-22T05:46:58.570Z,7.28
2016-03-22T05:47:58.729Z,7.39
2016-03-22T05:48:59.497Z,7.27
2016-03-22T05:49:58.719Z,7.39
2016-03-22T05:50:58.721Z,7.43
2016-03-22T05:51:59.303Z,7.49
2016-03-22T05:52:59.540Z,7.42
2016-03-22T05:53:59.277Z,7.48
2016-03-22T05:54:58.920Z,7.5
2016-03-22T05:55:58.657Z,7.63
2016-03-22T05:56:58.660Z,7.52
2016-03-22T05:57:58.662Z,7.57
2016-03-22T05:58:59.885Z,7.6
2016-03-22T06:00:00.871Z,7.68
2016-03-22T06:00:58.640Z,7.74
2016-03-22T06:01:58.642Z,7.79
2016-03-22T06:02:59.660Z,7.82
2016-03-22T06:03:58.632Z,7.75
2016-03-22T06:04:58.618Z,7.83
2016-03-22T06:05:58.606Z,7.86
2016-03-22T06:06:58.609Z,7.85
2016-03-22T06:08:12.786Z,7.89
2016-03-22T06:09:13.039Z,8.01
2016-03-22T06:10:58.573Z,8.04
2016-03-22T06:11:58.981Z,8.04
2016-03-22T06:12:58.921Z,8.12
2016-03-22T06:13:58.550Z,8.16
2016-03-22T06:14:58.552Z,8.25
2016-03-22T06:15:58.555Z,8.23
2016-03-22T06:16:58.525Z,8.29
2016-03-22T06:18:00.622Z,8.29
2016-03-22T06:18:58.640Z,8.26
2016-03-22T06:19:58.830Z,8.34
2016-03-22T06:20:58.553Z,8.44
2016-03-22T06:21:59.118Z,8.36
2016-03-22T06:22:58.511Z,8.45
2016-03-22T06:23:58.513Z,8.56
2016-03-22T06:24:58.704Z,8.68
2016-03-22T06:25:58.504Z,8.96
2016-03-22T06:26:58.474Z,9.1
2016-03-22T06:27:58.493Z,9.31
2016-03-22T06:28:58.464Z,9.46
2016-03-22T06:29:58.468Z,9.71
2016-03-22T06:30:58.470Z,9.96
2016-03-22T06:31:58.457Z,10.23
2016-03-22T06:32:58.444Z,10.47
2016-03-22T06:33:58.462Z,10.74
2016-03-22T06:34:58.465Z,11.07
2016-03-22T06:35:58.451Z,11.28
2016-03-22T06:36:58.455Z,11.43
2016-03-22T06:37:58.442Z,11.46
2016-03-22T06:38:58.429Z,11.64
2016-03-22T06:39:58.431Z,11.69
2016-03-22T06:40:58.450Z,11.69
2016-03-22T06:41:58.422Z,11.67
2016-03-22T06:42:58.439Z,11.61
2016-03-22T06:43:58.428Z,11.67
2016-03-22T06:44:58.430Z,11.72
2016-03-22T06:45:58.433Z,11.69
2016-03-22T06:46:58.435Z,11.7
2016-03-22T06:47:58.453Z,11.72
2016-03-22T06:48:58.424Z,11.8
2016-03-22T06:49:58.427Z,11.75
2016-03-22T06:50:58.429Z,11.7
2016-03-22T06:51:58.416Z,11.67
2016-03-22T06:52:58.419Z,11.57
2016-03-22T06:53:58.407Z,11.47
2016-03-22T06:54:58.410Z,11.32
2016-03-22T06:55:58.412Z,11.29
2016-03-22T06:56:58.415Z,11.24
2016-03-22T06:57:58.401Z,11.29
2016-03-22T06:58:58.421Z,11.24
2016-03-22T06:59:58.391Z,11.24
2016-03-22T07:00:58.426Z,11.39
2016-03-22T07:01:58.396Z,11.25
2016-03-22T07:02:58.384Z,11.28
2016-03-22T07:03:58.402Z,11.28
2016-03-22T07:04:58.389Z,11.19
2016-03-22T07:05:58.393Z,11.25
2016-03-22T07:06:58.239Z,11.22
2016-03-22T07:07:59.059Z,11.18
2016-03-22T07:08:59.092Z,11.09
2016-03-22T07:09:58.611Z,11.09
2016-03-22T07:10:58.395Z,10.96
2016-03-22T07:11:58.381Z,10.86
2016-03-22T07:12:58.385Z,10.74
2016-03-22T07:13:58.372Z,10.66
2016-03-22T07:14:58.797Z,10.6
2016-03-22T07:15:58.361Z,10.63
2016-03-22T07:16:58.395Z,10.64
2016-03-22T07:18:59.416Z,10.71
2016-03-22T07:19:59.966Z,10.63
2016-03-22T07:20:59.484Z,10.63
2016-03-22T07:21:58.846Z,10.66
2016-03-22T07:22:58.349Z,10.68
2016-03-22T07:23:58.351Z,10.55
2016-03-22T07:24:58.338Z,10.55
2016-03-22T07:25:58.341Z,10.53
2016-03-22T07:27:12.515Z,10.47
2016-03-22T07:28:00.034Z,10.48
2016-03-22T07:28:59.021Z,10.47
2016-03-22T07:29:58.321Z,10.44
2016-03-22T07:30:58.339Z,10.45
2016-03-22T07:31:58.326Z,10.47
2016-03-22T07:32:58.454Z,10.48
2016-03-22T07:33:58.347Z,10.4
2016-03-22T07:34:58.318Z,10.4
2016-03-22T07:35:58.306Z,10.47
2016-03-22T07:37:13.293Z,10.42
2016-03-22T07:37:58.639Z,10.47
2016-03-22T07:38:58.954Z,10.34
2016-03-22T07:39:58.582Z,10.36
2016-03-22T07:40:58.288Z,10.41
2016-03-22T07:41:58.337Z,10.42
2016-03-22T07:42:58.386Z,10.45
2016-03-22T07:43:58.281Z,10.59
2016-03-22T07:44:58.283Z,10.53
2016-03-22T07:45:58.270Z,10.59
2016-03-22T07:46:58.273Z,10.63
2016-03-22T07:47:58.275Z,10.7
2016-03-22T07:48:58.294Z,10.68
2016-03-22T07:49:58.280Z,10.7
2016-03-22T07:50:58.237Z,10.67
2016-03-22T07:51:58.255Z,10.67
2016-03-22T07:52:58.241Z,10.71
2016-03-22T07:53:58.260Z,10.68
2016-03-22T07:54:58.263Z,10.67
2016-03-22T07:55:58.265Z,10.67
2016-03-22T07:56:58.237Z,10.66
2016-03-22T07:57:58.240Z,10.59
2016-03-22T07:58:58.227Z,10.56
2016-03-22T07:59:58.276Z,10.44
2016-03-22T08:00:58.248Z,10.45
2016-03-22T08:01:58.204Z,10.42
2016-03-22T08:02:58.206Z,10.52
2016-03-22T08:03:58.225Z,10.42
2016-03-22T08:04:58.196Z,10.45
2016-03-22T08:05:58.214Z,10.51
2016-03-22T08:06:58.202Z,10.56
2016-03-22T08:07:58.204Z,10.56
2016-03-22T08:08:58.176Z,10.68
2016-03-22T08:09:58.225Z,10.78
2016-03-22T08:10:58.275Z,10.84
2016-03-22T08:11:58.200Z,10.82
2016-03-22T08:12:58.186Z,10.85
2016-03-22T08:13:58.173Z,10.84
2016-03-22T08:14:58.176Z,10.91
2016-03-22T08:15:58.178Z,10.96
2016-03-22T08:16:58.197Z,11.09
2016-03-22T08:17:58.169Z,11.24
2016-03-22T08:18:58.172Z,11.24
2016-03-22T08:19:58.158Z,11.24
2016-03-22T08:20:58.177Z,11.37
2016-03-22T08:21:58.163Z,11.42
2016-03-22T08:22:58.011Z,11.55
2016-03-22T08:23:58.154Z,11.72
2016-03-22T08:24:58.157Z,11.67
2016-03-22T08:25:58.143Z,11.73
2016-03-22T08:26:58.927Z,11.78
2016-03-22T08:28:00.571Z,11.79
2016-03-22T08:28:59.824Z,11.86
2016-03-22T08:29:58.467Z,11.98
2016-03-22T08:30:58.938Z,11.96
2016-03-22T08:31:58.831Z,11.91
2016-03-22T08:32:58.584Z,11.86
2016-03-22T08:33:58.118Z,11.82
2016-03-22T08:34:58.151Z,12.04
2016-03-22T08:35:58.123Z,11.98
2016-03-22T08:37:00.313Z,12.01
2016-03-22T08:37:58.254Z,12.04
2016-03-22T08:38:58.865Z,11.95
2016-03-22T08:39:58.822Z,11.79
2016-03-22T08:40:58.121Z,11.69
2016-03-22T08:41:58.139Z,11.72
2016-03-22T08:42:58.283Z,11.55
2016-03-22T08:43:58.458Z,11.55
2016-03-22T08:44:58.101Z,11.57
2016-03-22T08:45:59.822Z,11.55
2016-03-22T08:47:12.293Z,11.58
2016-03-22T08:47:59.156Z,11.52
2016-03-22T08:48:58.111Z,11.57
2016-03-22T08:49:58.630Z,11.51
2016-03-22T08:50:58.555Z,11.64
2016-03-22T08:51:58.119Z,11.62
2016-03-22T08:52:58.122Z,11.67
2016-03-22T08:53:58.093Z,11.69
2016-03-22T08:54:58.097Z,11.79
2016-03-22T08:55:58.490Z,11.83
2016-03-22T08:57:12.273Z,11.83
2016-03-22T08:57:58.089Z,11.83
2016-03-22T08:58:58.076Z,11.95
2016-03-22T08:59:58.454Z,11.98
2016-03-22T09:00:58.675Z,12.02
2016-03-22T09:01:58.132Z,11.95
2016-03-22T09:02:58.087Z,11.94
2016-03-22T09:03:58.089Z,11.88
2016-03-22T09:04:58.060Z,11.85
2016-03-22T09:05:58.079Z,11.8
2016-03-22T09:06:58.079Z,11.85
2016-03-22T09:07:58.081Z,11.85
2016-03-22T09:08:58.069Z,11.76
2016-03-22T09:09:58.072Z,11.8
2016-03-22T09:10:58.074Z,11.9
2016-03-22T09:11:58.061Z,11.86
2016-03-22T09:12:58.064Z,11.91
2016-03-22T09:13:58.051Z,12.05
2016-03-22T09:14:58.085Z,12.21
2016-03-22T09:15:58.041Z,12.14
2016-03-22T09:16:58.058Z,12.35
2016-03-22T09:17:58.061Z,12.45
2016-03-22T09:18:58.032Z,12.42
2016-03-22T09:19:58.036Z,12.49
2016-03-22T09:20:58.054Z,12.56
2016-03-22T09:21:58.024Z,12.56
2016-03-22T09:22:58.027Z,12.53
2016-03-22T09:23:58.046Z,12.45
2016-03-22T09:24:58.033Z,12.5
2016-03-22T09:25:58.035Z,12.47
2016-03-22T09:26:58.039Z,12.47
2016-03-22T09:27:58.026Z,12.39
2016-03-22T09:28:58.028Z,12.41
2016-03-22T09:29:58.031Z,12.39
2016-03-22T09:30:58.034Z,12.38
2016-03-22T09:31:58.006Z,12.24
2016-03-22T09:32:58.039Z,12.29
2016-03-22T09:33:58.011Z,12.24
2016-03-22T09:34:58.029Z,12.27
2016-03-22T09:35:58.016Z,12.31
2016-03-22T09:36:58.020Z,12.27
2016-03-22T09:37:58.022Z,12.21
2016-03-22T09:38:58.008Z,12.31
2016-03-22T09:39:58.011Z,12.24
2016-03-22T09:40:58.014Z,12.24
2016-03-22T09:41:58.001Z,12.35
2016-03-22T09:42:58.003Z,12.34
2016-03-22T09:43:58.006Z,12.39
2016-03-22T09:44:57.993Z,12.47
2016-03-22T09:45:58.840Z,12.42
2016-03-22T09:46:59.358Z,12.49
2016-03-22T09:47:58.549Z,12.46
2016-03-22T09:48:58.004Z,12.45
2016-03-22T09:49:58.335Z,12.46
2016-03-22T09:50:58.447Z,12.57
2016-03-22T09:51:57.996Z,12.52
2016-03-22T09:52:57.999Z,12.52
2016-03-22T09:53:58.080Z,12.5
2016-03-22T09:54:57.988Z,12.5
2016-03-22T09:55:59.227Z,12.42
2016-03-22T09:57:00.338Z,12.42
2016-03-22T09:57:57.982Z,12.42
2016-03-22T09:58:57.968Z,12.31
2016-03-22T09:59:58.784Z,12.19
2016-03-22T10:00:57.990Z,12.12
2016-03-22T10:01:58.304Z,12.13
2016-03-22T10:02:57.964Z,12.13
2016-03-22T10:03:57.967Z,12.16
2016-03-22T10:05:57.973Z,12.1
2016-03-22T10:07:58.039Z,12.01
2016-03-22T10:08:58.324Z,11.85
2016-03-22T10:09:57.951Z,11.85
2016-03-22T10:10:57.939Z,11.7
2016-03-22T10:11:57.941Z,11.65
2016-03-22T10:12:57.959Z,11.54
2016-03-22T10:13:57.931Z,11.49
2016-03-22T10:14:59.200Z,11.42
2016-03-22T10:16:12.139Z,11.52
2016-03-22T10:16:57.955Z,11.4
2016-03-22T10:17:57.941Z,11.39
2016-03-22T10:18:58.538Z,11.36
2016-03-22T10:19:57.916Z,11.25
2016-03-22T10:20:57.933Z,11.33
2016-03-22T10:21:57.921Z,11.28
2016-03-22T10:22:57.939Z,11.43
2016-03-22T10:23:57.926Z,11.4
2016-03-22T10:24:57.913Z,11.54
2016-03-22T10:25:58.151Z,11.61
2016-03-22T10:26:57.919Z,11.58
2016-03-22T10:27:57.906Z,11.72
2016-03-22T10:28:57.909Z,11.88
2016-03-22T10:29:57.912Z,11.88
2016-03-22T10:30:57.898Z,11.9
2016-03-22T10:31:57.901Z,12.02
2016-03-22T10:32:57.888Z,11.95
2016-03-22T10:33:57.906Z,12.02
2016-03-22T10:34:57.893Z,12.04
2016-03-22T10:35:57.928Z,12.17
2016-03-22T10:36:57.899Z,12.21
2016-03-22T10:37:57.917Z,12.19
2016-03-22T10:38:57.889Z,12.12
2016-03-22T10:39:57.892Z,12.17
2016-03-22T10:40:57.909Z,12.14
2016-03-22T10:41:57.880Z,12.12
2016-03-22T10:42:57.883Z,12.21
2016-03-22T10:43:57.886Z,12.12
2016-03-22T10:44:57.889Z,12.17
2016-03-22T10:45:57.876Z,12.19
2016-03-22T10:46:57.878Z,12.09
2016-03-22T10:47:57.866Z,12.16
2016-03-22T10:48:57.853Z,12.04
2016-03-22T10:49:57.887Z,11.95
2016-03-22T10:50:57.858Z,11.99
2016-03-22T10:51:57.876Z,12.01
2016-03-22T10:52:57.879Z,12.05
2016-03-22T10:53:57.851Z,12.05
2016-03-22T10:54:57.869Z,12.19
2016-03-22T10:55:57.872Z,12.21
2016-03-22T10:56:57.843Z,12.47
2016-03-22T10:57:57.830Z,12.53
2016-03-22T10:58:57.848Z,12.72
2016-03-22T10:59:57.852Z,12.86
2016-03-22T11:00:57.838Z,13
2016-03-22T11:01:57.840Z,13.14
2016-03-22T11:02:57.829Z,13.22
2016-03-22T11:03:57.844Z,13.23
2016-03-22T11:04:58.623Z,13.41
2016-03-22T11:05:58.025Z,13.54
2016-03-22T11:06:57.833Z,13.66
2016-03-22T11:07:58.769Z,13.75
2016-03-22T11:08:57.813Z,13.71
2016-03-22T11:09:57.813Z,13.71
2016-03-22T11:10:57.798Z,13.87
2016-03-22T11:11:57.814Z,13.92
2016-03-22T11:12:57.783Z,13.89
2016-03-22T11:13:57.783Z,13.97
2016-03-22T11:14:57.786Z,14.02
2016-03-22T11:15:58.882Z,13.88
2016-03-22T11:16:59.118Z,13.95
2016-03-22T11:17:58.760Z,13.88
2016-03-22T11:18:58.013Z,13.78
2016-03-22T11:19:58.483Z,13.69
2016-03-22T11:20:57.782Z,13.66
2016-03-22T11:21:57.785Z,13.48
2016-03-22T11:22:57.927Z,13.25
2016-03-22T11:23:58.337Z,13.12
2016-03-22T11:24:58.637Z,13.03
2016-03-22T11:25:57.779Z,12.85
2016-03-22T11:27:12.423Z,12.7
2016-03-22T11:27:57.770Z,12.72
2016-03-22T11:28:57.787Z,12.6
2016-03-22T11:29:57.775Z,12.54
2016-03-22T11:30:57.792Z,12.49
2016-03-22T11:31:57.765Z,12.42
2016-03-22T11:32:57.626Z,12.42
2016-03-22T11:34:58.084Z,12.5
2016-03-22T11:35:58.478Z,12.47
2016-03-22T11:36:58.231Z,12.47
2016-03-22T11:37:57.765Z,12.46
2016-03-22T11:38:58.080Z,12.6
2016-03-22T11:39:58.113Z,12.59
2016-03-22T11:40:57.758Z,12.57
2016-03-22T11:41:57.760Z,12.68
2016-03-22T11:42:57.763Z,12.6
2016-03-22T11:43:57.750Z,12.65
2016-03-22T11:44:57.768Z,12.67
2016-03-22T11:45:57.755Z,12.65
2016-03-22T11:46:57.758Z,12.7
2016-03-22T11:47:57.760Z,12.67
2016-03-22T11:48:57.732Z,12.85
2016-03-22T11:49:57.749Z,12.85
2016-03-22T11:50:57.738Z,13.01
2016-03-22T11:51:57.740Z,13.07
2016-03-22T11:52:57.743Z,13.14
2016-03-22T11:53:57.760Z,13.14
2016-03-22T11:54:57.748Z,13.22
2016-03-22T11:55:57.735Z,13.23
2016-03-22T11:56:57.723Z,13.32
2016-03-22T11:57:57.740Z,13.45
2016-03-22T11:58:57.759Z,13.39
2016-03-22T11:59:57.746Z,13.46
2016-03-22T12:00:57.733Z,13.49
2016-03-22T12:01:57.736Z,13.49
2016-03-22T12:02:57.723Z,13.52
2016-03-22T12:03:57.741Z,13.6
2016-03-22T12:04:57.712Z,13.66
2016-03-22T12:05:57.731Z,13.71
2016-03-22T12:06:57.717Z,13.87
2016-03-22T12:07:57.736Z,14.07
2016-03-22T12:08:57.722Z,14.17
2016-03-22T12:09:57.742Z,14.25
2016-03-22T12:10:57.713Z,14.27
2016-03-22T12:11:57.731Z,14.42
2016-03-22T12:12:57.719Z,14.61
2016-03-22T12:13:57.721Z,14.77
2016-03-22T12:14:57.724Z,14.83
2016-03-22T12:15:57.727Z,14.84
2016-03-22T12:16:57.729Z,14.96
2016-03-22T12:17:57.716Z,15.06
2016-03-22T12:18:57.718Z,15.11
2016-03-22T12:19:57.722Z,15.16
2016-03-22T12:20:57.740Z,15.27
2016-03-22T12:21:57.743Z,15.29
2016-03-22T12:22:57.730Z,15.32
2016-03-22T12:23:59.966Z,15.27
2016-03-22T12:24:59.516Z,15.38
2016-03-22T12:25:58.769Z,15.35
2016-03-22T12:26:57.709Z,15.47
2016-03-22T12:27:57.945Z,15.32
2016-03-22T12:28:57.761Z,15.2
2016-03-22T12:29:57.732Z,15.23
2016-03-22T12:30:57.907Z,15.06
2016-03-22T12:31:57.754Z,14.95
2016-03-22T12:32:57.740Z,14.86
2016-03-22T12:33:59.337Z,14.77
2016-03-22T12:34:57.730Z,14.54
2016-03-22T12:35:57.781Z,14.4
2016-03-22T12:36:57.720Z,14.27
2016-03-22T12:37:58.753Z,14.2
2016-03-22T12:38:57.726Z,14.17
2016-03-22T12:39:57.744Z,14.1
2016-03-22T12:40:57.731Z,14.1
2016-03-22T12:41:57.781Z,14.04
2016-03-22T12:42:59.096Z,13.85
2016-03-22T12:43:58.645Z,13.81
2016-03-22T12:44:57.772Z,13.7
2016-03-22T12:45:58.558Z,13.67
2016-03-22T12:46:57.841Z,13.62
2016-03-22T12:47:58.141Z,13.57
2016-03-22T12:48:57.753Z,13.59
2016-03-22T12:49:57.740Z,13.57
2016-03-22T12:50:57.758Z,13.57
2016-03-22T12:51:57.746Z,13.59
2016-03-22T12:52:57.733Z,13.71
2016-03-22T12:53:58.282Z,13.69
2016-03-22T12:54:58.440Z,13.71
2016-03-22T12:55:57.850Z,13.6
2016-03-22T12:56:57.712Z,13.55
2016-03-22T12:57:57.762Z,13.42
2016-03-22T12:58:57.748Z,13.28
2016-03-22T12:59:57.751Z,13.22
2016-03-22T13:00:57.737Z,13.15
2016-03-22T13:01:57.850Z,13.08
2016-03-22T13:02:57.728Z,13.01
2016-03-22T13:03:57.762Z,13.08
2016-03-22T13:04:57.733Z,13.04
2016-03-22T13:05:57.736Z,13.11
2016-03-22T13:06:57.723Z,13.15
2016-03-22T13:07:57.730Z,13.17
2016-03-22T13:08:57.750Z,13.1
2016-03-22T13:09:57.736Z,13
2016-03-22T13:10:57.755Z,12.95
2016-03-22T13:11:57.725Z,12.87
2016-03-22T13:12:57.744Z,12.89
2016-03-22T13:13:57.747Z,12.79
2016-03-22T13:14:57.718Z,12.74
2016-03-22T13:15:57.752Z,12.67